Accueil
METAR-TAF:

METAR-TAF

Aéroports :

Vanua Lava, Vanuatu

latitude: 13-51-06S, longitude: 167-32-13E, altitude: 2 m

Observation

Le bulletin a été fait il y a 9 heures et 39 minutes, à 06:00 UTC
Vent calme
Température 27°C
Humidité 70%
Pression 1012 hPa
Visibilité 10 km ou plus
Nuages épars à une hauteur de 2000 ft

METAR: NVSC 230600Z 00000KT 9999 SCT020 27/21 Q1012

Heure: 02:39 (15:39 UTC)

Prévision

Le bulletin a été fait il y a 5 heures et 39 minutes, à 10:00 UTC
Prévision valable du 23 à 12 UTC au 24 à 12 UTC
Vent 6 kt de sud-est
Visibilité 10 km ou plus
Quelques nuages à une hauteur de 2000 ft

TAF: NVSC 231000Z 2312/2412 14006KT 9999 FEW020

Observations et prévisions météorologiques de plus de 4000 aéroports (messages METAR et TAF).

Les stations disponibles sont représentées par des disques jaunes et rouges sur la carte.

Passer la souris dessus pour voir le nom de la station.

Cliquer dessus pour voir les observations et prévisions météorologiques.

Pour changer de carte: cliquez sur les boutons verts avec une croix noire pour zoomer, sur le bouton vert avec un tiret pour effectuer un zoom arrière, ou sur les flèches vertes pour les cartes adjacentes.


METAR-TAF: